createdAt,value
2018-02-07T00:02:22.744Z,93551.72
2018-02-07T00:04:50.542Z,93550.39
2018-02-07T00:07:19.398Z,93548.01
2018-02-07T00:09:48.538Z,93548.32
2018-02-07T00:12:17.214Z,93551.44
2018-02-07T00:14:51.320Z,93547.88
2018-02-07T00:17:20.316Z,93551.56
2018-02-07T00:19:51.564Z,93547.33
2018-02-07T00:22:23.278Z,93537.11
2018-02-07T00:24:51.396Z,93547.61
2018-02-07T00:27:25.177Z,93536.48
2018-02-07T00:29:53.749Z,93533.00
2018-02-07T00:32:22.982Z,93541.77
2018-02-07T00:34:52.430Z,93532.78
2018-02-07T00:37:29.093Z,93534.11
2018-02-07T00:39:57.115Z,93524.53
2018-02-07T00:42:27.934Z,93530.81
2018-02-07T00:44:55.903Z,93538.52
2018-02-07T00:47:23.792Z,93534.09
2018-02-07T00:49:53.229Z,93532.58
2018-02-07T00:52:21.052Z,93532.44
2018-02-07T00:54:48.907Z,93524.91
2018-02-07T00:57:16.865Z,93525.44
2018-02-07T00:59:45.803Z,93525.84
2018-02-07T01:02:13.876Z,93519.52
2018-02-07T01:04:47.606Z,93519.03
2018-02-07T01:07:22.719Z,93508.63
2018-02-07T01:09:50.787Z,93507.11
2018-02-07T01:12:19.537Z,93510.64
2018-02-07T01:14:48.355Z,93498.11
2018-02-07T01:17:17.166Z,93500.52
2018-02-07T01:19:47.305Z,93500.69
2018-02-07T01:22:16.929Z,93495.42
2018-02-07T01:24:45.581Z,93492.48
2018-02-07T01:27:13.537Z,93489.00
2018-02-07T01:29:41.605Z,93494.06
2018-02-07T01:32:10.091Z,93498.19
2018-02-07T01:34:38.214Z,93489.16
2018-02-07T01:37:09.515Z,93488.66
2018-02-07T01:39:37.690Z,93484.51
2018-02-07T01:42:07.401Z,93478.00
2018-02-07T01:44:35.878Z,93469.61
2018-02-07T01:47:03.652Z,93466.49
2018-02-07T01:49:31.711Z,93455.53
2018-02-07T01:52:00.202Z,93451.80
2018-02-07T01:54:28.246Z,93459.52
2018-02-07T01:56:56.913Z,93472.07
2018-02-07T01:59:25.505Z,93480.16
2018-02-07T02:01:54.176Z,93475.81
2018-02-07T02:04:23.061Z,93467.81
2018-02-07T02:06:52.684Z,93466.32
2018-02-07T02:09:21.511Z,93463.84
2018-02-07T02:11:50.265Z,93451.04
2018-02-07T02:14:18.088Z,93449.77
2018-02-07T02:16:48.043Z,93447.48
2018-02-07T02:19:16.155Z,93437.17
2018-02-07T02:21:47.802Z,93435.46
2018-02-07T02:24:16.498Z,93433.70
2018-02-07T02:26:49.857Z,93427.22
2018-02-07T02:29:18.502Z,93421.36
2018-02-07T02:31:48.475Z,93415.72
2018-02-07T02:34:21.616Z,93419.72
2018-02-07T02:36:52.380Z,93421.00
2018-02-07T02:39:23.241Z,93420.34
2018-02-07T02:41:54.888Z,93415.07
2018-02-07T02:44:27.705Z,93419.09
2018-02-07T02:52:19.001Z,93416.80
2018-02-07T02:54:51.937Z,93413.94
2018-02-07T02:57:28.136Z,93404.52
2018-02-07T03:12:37.256Z,93387.44
2018-02-07T03:15:08.249Z,93382.38
2018-02-07T03:17:43.887Z,93380.83
2018-02-07T03:20:26.342Z,93379.03
2018-02-07T03:23:23.645Z,93380.20
2018-02-07T03:25:53.389Z,93374.14
2018-02-07T03:31:18.198Z,93371.38
2018-02-07T03:33:48.717Z,93372.35
2018-02-07T03:36:21.066Z,93368.77
2018-02-07T03:44:28.786Z,93359.91
2018-02-07T03:47:02.849Z,93351.98
2018-02-07T03:52:16.232Z,93357.36
2018-02-07T03:54:54.078Z,93359.91
2018-02-07T03:57:37.890Z,93347.58
2018-02-07T04:00:12.494Z,93350.97
2018-02-07T04:02:52.371Z,93351.00
2018-02-07T04:06:09.359Z,93343.59
2018-02-07T04:18:00.476Z,93302.94
2018-02-07T04:20:30.015Z,93292.69
2018-02-07T04:30:40.028Z,93278.59
2018-02-07T04:33:13.094Z,93277.56
2018-02-07T04:35:43.658Z,93279.75
2018-02-07T04:38:15.475Z,93272.94
2018-02-07T04:40:47.125Z,93271.77
2018-02-07T04:43:32.834Z,93272.64
2018-02-07T04:46:04.334Z,93270.91
2018-02-07T04:48:42.240Z,93267.42
2018-02-07T04:51:11.697Z,93272.06
2018-02-07T04:53:44.476Z,93264.36
2018-02-07T04:56:18.488Z,93260.55
2018-02-07T04:58:48.856Z,93260.06
2018-02-07T05:01:18.725Z,93254.45
2018-02-07T05:03:52.638Z,93250.31
2018-02-07T05:06:23.738Z,93251.20
2018-02-07T05:08:54.879Z,93253.42
2018-02-07T05:11:28.051Z,93257.85
2018-02-07T05:14:09.460Z,93258.81
2018-02-07T05:16:41.191Z,93253.74
2018-02-07T05:19:09.744Z,93263.89
2018-02-07T05:21:37.712Z,93261.48
2018-02-07T05:24:06.190Z,93263.64
2018-02-07T05:26:34.199Z,93258.16
2018-02-07T05:29:02.150Z,93267.61
2018-02-07T05:31:32.673Z,93266.97
2018-02-07T05:34:01.358Z,93272.63
2018-02-07T05:36:29.124Z,93275.54
2018-02-07T05:38:57.196Z,93269.23
2018-02-07T05:41:26.051Z,93268.69
2018-02-07T05:43:54.170Z,93277.98
2018-02-07T05:46:22.027Z,93275.33
2018-02-07T05:48:50.086Z,93272.30
2018-02-07T05:51:18.158Z,93271.58
2018-02-07T05:53:47.153Z,93275.43
2018-02-07T05:56:16.042Z,93276.14
2018-02-07T05:58:45.015Z,93282.59
2018-02-07T06:01:13.108Z,93285.17
2018-02-07T06:03:41.103Z,93292.72
2018-02-07T06:06:08.917Z,93290.37
2018-02-07T06:08:36.829Z,93302.84
2018-02-07T06:11:04.883Z,93306.83
2018-02-07T06:13:32.776Z,93311.73
2018-02-07T06:16:00.683Z,93312.69
2018-02-07T06:18:28.653Z,93316.67
2018-02-07T06:20:56.741Z,93311.79
2018-02-07T06:23:24.808Z,93312.91
2018-02-07T06:25:52.600Z,93308.92
2018-02-07T06:28:20.470Z,93315.65
2018-02-07T06:30:48.434Z,93322.55
2018-02-07T06:33:16.428Z,93319.09
2018-02-07T06:35:44.572Z,93316.42
2018-02-07T06:38:12.854Z,93326.59
2018-02-07T06:40:40.928Z,93324.98
2018-02-07T06:43:08.996Z,93320.33
2018-02-07T06:45:37.072Z,93326.38
2018-02-07T06:48:05.402Z,93322.48
2018-02-07T06:50:33.472Z,93325.98
2018-02-07T06:53:01.442Z,93316.43
2018-02-07T06:55:29.331Z,93314.56
2018-02-07T06:57:57.298Z,93305.97
2018-02-07T07:00:26.391Z,93305.48
2018-02-07T07:02:54.255Z,93307.95
2018-02-07T07:05:23.349Z,93310.97
2018-02-07T07:07:51.317Z,93308.29
2018-02-07T07:10:19.291Z,93296.38
2018-02-07T07:12:47.182Z,93297.97
2018-02-07T07:15:15.168Z,93296.66
2018-02-07T07:17:43.851Z,93291.75
2018-02-07T07:20:11.908Z,93285.63
2018-02-07T07:22:40.129Z,93282.66
2018-02-07T07:25:08.104Z,93285.54
2018-02-07T07:27:37.472Z,93285.00
2018-02-07T07:30:05.497Z,93290.80
2018-02-07T07:32:36.274Z,93285.21
2018-02-07T07:35:04.222Z,93285.78
2018-02-07T07:37:37.849Z,93286.64
2018-02-07T07:40:06.977Z,93283.00
2018-02-07T07:42:34.908Z,93285.99
2018-02-07T07:45:02.813Z,93289.53
2018-02-07T07:47:31.860Z,93282.73
2018-02-07T07:49:59.960Z,93282.84
2018-02-07T07:52:28.024Z,93287.63
2018-02-07T07:54:56.056Z,93286.80
2018-02-07T07:57:27.724Z,93295.06
2018-02-07T07:59:55.882Z,93295.16
2018-02-07T08:02:23.758Z,93290.27
2018-02-07T08:04:51.732Z,93289.18
2018-02-07T08:07:19.544Z,93285.14
2018-02-07T08:09:47.492Z,93289.50
2018-02-07T08:12:16.694Z,93285.92
2018-02-07T08:14:44.639Z,93285.75
2018-02-07T08:17:12.607Z,93285.95
2018-02-07T08:19:40.315Z,93281.42
2018-02-07T08:22:09.386Z,93279.16
2018-02-07T08:24:37.316Z,93275.13
2018-02-07T08:27:05.399Z,93278.20
2018-02-07T08:29:33.492Z,93261.34
2018-02-07T08:32:01.572Z,93256.41
2018-02-07T08:34:29.643Z,93250.48
2018-02-07T08:36:57.717Z,93253.06
2018-02-07T08:39:25.636Z,93252.56
2018-02-07T08:41:53.526Z,93259.70
2018-02-07T08:44:22.219Z,93253.50
2018-02-07T08:46:50.618Z,93253.81
2018-02-07T08:49:18.690Z,93258.00
2018-02-07T08:51:46.557Z,93261.00
2018-02-07T08:54:14.596Z,93267.81
2018-02-07T08:56:42.699Z,93268.16
2018-02-07T08:59:10.774Z,93269.92
2018-02-07T09:01:38.793Z,93267.40
2018-02-07T09:04:06.704Z,93276.55
2018-02-07T09:06:34.648Z,93273.77
2018-02-07T09:09:02.675Z,93257.75
2018-02-07T09:11:30.883Z,93252.81
2018-02-07T09:13:59.002Z,93252.96
2018-02-07T09:16:27.066Z,93241.20
2018-02-07T09:18:55.133Z,93241.75
2018-02-07T09:21:23.201Z,93235.05
2018-02-07T09:23:51.202Z,93226.57
2018-02-07T09:26:19.182Z,93231.13
2018-02-07T09:28:47.026Z,93234.91
2018-02-07T09:31:15.224Z,93225.47
2018-02-07T09:33:43.433Z,93222.14
2018-02-07T09:36:11.406Z,93226.84
2018-02-07T09:38:39.171Z,93228.37
2018-02-07T09:41:07.135Z,93225.59
2018-02-07T09:43:35.104Z,93216.70
2018-02-07T09:46:02.929Z,93214.11
2018-02-07T09:48:30.810Z,93207.52
2018-02-07T09:50:59.752Z,93213.59
2018-02-07T09:53:27.727Z,93208.49
2018-02-07T09:55:55.609Z,93210.47
2018-02-07T09:58:23.426Z,93210.72
2018-02-07T10:00:52.261Z,93218.83
2018-02-07T10:03:20.287Z,93211.22
2018-02-07T10:05:48.378Z,93214.68
2018-02-07T10:08:16.316Z,93205.06
2018-02-07T10:10:48.084Z,93199.03
2018-02-07T10:13:16.056Z,93202.00
2018-02-07T10:15:44.175Z,93205.72
2018-02-07T10:18:12.114Z,93204.09
2018-02-07T10:20:40.119Z,93202.19
2018-02-07T10:23:08.147Z,93201.60
2018-02-07T10:25:36.262Z,93199.08
2018-02-07T10:28:04.332Z,93204.53
2018-02-07T10:30:32.271Z,93205.20
2018-02-07T10:33:00.139Z,93206.52
2018-02-07T10:35:29.202Z,93198.02
2018-02-07T10:37:57.234Z,93198.51
2018-02-07T10:40:25.164Z,93201.69
2018-02-07T10:42:53.173Z,93210.08
2018-02-07T10:45:21.245Z,93207.57
2018-02-07T10:47:49.290Z,93208.28
2018-02-07T10:50:17.290Z,93209.77
2018-02-07T10:52:45.328Z,93208.80
2018-02-07T10:55:13.416Z,93202.28
2018-02-07T10:57:41.501Z,93200.77
2018-02-07T11:00:10.190Z,93198.72
2018-02-07T11:02:38.261Z,93194.45
2018-02-07T11:05:06.290Z,93196.00
2018-02-07T11:07:34.263Z,93198.27
2018-02-07T11:10:02.022Z,93198.12
2018-02-07T11:12:30.045Z,93194.80
2018-02-07T11:14:58.276Z,93199.47
2018-02-07T11:17:26.413Z,93200.75
2018-02-07T11:19:54.536Z,93198.56
2018-02-07T11:22:22.528Z,93191.20
2018-02-07T11:24:50.499Z,93178.25
2018-02-07T11:27:18.639Z,93173.19
2018-02-07T11:29:46.744Z,93169.11
2018-02-07T11:32:14.870Z,93164.20
2018-02-07T11:34:42.875Z,93166.31
2018-02-07T11:37:10.929Z,93153.87
2018-02-07T11:39:39.022Z,93147.89
2018-02-07T11:42:07.088Z,93144.18
2018-02-07T11:44:35.831Z,93142.14
2018-02-07T11:47:03.844Z,93143.80
2018-02-07T11:49:32.145Z,93143.66
2018-02-07T11:52:00.209Z,93142.00
2018-02-07T11:54:28.049Z,93155.24
2018-02-07T11:56:56.151Z,93156.34
2018-02-07T11:59:24.648Z,93161.64
2018-02-07T12:01:52.703Z,93161.20
2018-02-07T12:04:22.234Z,93160.88
2018-02-07T12:06:50.266Z,93149.33
2018-02-07T12:09:18.335Z,93152.74
2018-02-07T12:11:46.294Z,93143.20
2018-02-07T12:14:14.359Z,93148.39
2018-02-07T12:16:42.449Z,93140.22
2018-02-07T12:19:10.316Z,93141.47
2018-02-07T12:21:39.208Z,93137.81
2018-02-07T12:24:07.284Z,93136.80
2018-02-07T12:26:35.986Z,93134.01
2018-02-07T12:29:04.055Z,93136.72
2018-02-07T12:31:31.977Z,93140.45
2018-02-07T12:33:59.898Z,93149.40
2018-02-07T12:36:28.136Z,93153.31
2018-02-07T12:38:56.209Z,93154.84
2018-02-07T12:41:24.325Z,93152.24
2018-02-07T12:43:52.259Z,93151.68
2018-02-07T12:46:20.331Z,93141.42
2018-02-07T12:48:48.325Z,93143.19
2018-02-07T12:51:16.390Z,93147.84
2018-02-07T12:53:44.130Z,93149.41
2018-02-07T12:56:12.097Z,93150.79
2018-02-07T12:58:39.988Z,93149.51
2018-02-07T13:01:07.934Z,93147.53
2018-02-07T13:03:35.923Z,93151.30
2018-02-07T13:06:03.991Z,93149.53
2018-02-07T13:08:32.432Z,93153.77
2018-02-07T13:11:00.559Z,93151.88
2018-02-07T13:13:28.393Z,93148.91
2018-02-07T13:15:56.265Z,93154.80
2018-02-07T13:18:24.262Z,93156.39
2018-02-07T13:20:52.296Z,93154.55
2018-02-07T13:23:20.408Z,93162.92
2018-02-07T13:25:48.554Z,93165.69
2018-02-07T13:28:16.654Z,93164.69
2018-02-07T13:30:45.600Z,93168.10
2018-02-07T13:33:14.527Z,93162.18
2018-02-07T13:35:42.406Z,93170.52
2018-02-07T13:38:10.435Z,93173.28
2018-02-07T13:40:38.403Z,93172.55
2018-02-07T13:43:06.746Z,93174.48
2018-02-07T13:45:34.739Z,93170.73
2018-02-07T13:48:03.665Z,93172.13
2018-02-07T13:50:31.623Z,93181.36
2018-02-07T13:52:59.725Z,93183.69
2018-02-07T13:55:27.810Z,93181.23
2018-02-07T13:57:55.834Z,93179.73
2018-02-07T14:00:23.768Z,93181.02
2018-02-07T14:02:51.534Z,93185.77
2018-02-07T14:05:19.372Z,93187.09
2018-02-07T14:07:47.439Z,93183.81
2018-02-07T14:10:15.482Z,93186.00
2018-02-07T14:12:44.165Z,93194.66
2018-02-07T14:15:12.238Z,93192.68
2018-02-07T14:17:40.240Z,93202.72
2018-02-07T14:20:09.275Z,93203.11
2018-02-07T14:22:37.294Z,93205.98
2018-02-07T14:25:05.455Z,93214.45
2018-02-07T14:27:33.362Z,93210.92
2018-02-07T14:30:02.442Z,93215.69
2018-02-07T14:32:30.617Z,93224.02
2018-02-07T14:34:59.779Z,93222.91
2018-02-07T14:37:28.590Z,93229.33
2018-02-07T14:39:56.464Z,93227.07
2018-02-07T14:42:24.349Z,93229.51
2018-02-07T14:44:52.412Z,93234.83
2018-02-07T14:47:20.487Z,93238.41
2018-02-07T14:49:48.430Z,93239.56
2018-02-07T14:52:16.524Z,93244.62
2018-02-07T14:54:45.147Z,93249.12
2018-02-07T14:57:13.261Z,93255.55
2018-02-07T14:59:41.223Z,93254.86
2018-02-07T15:02:12.767Z,93262.96
2018-02-07T15:04:40.836Z,93255.91
2018-02-07T15:07:09.825Z,93262.03
2018-02-07T15:09:37.845Z,93260.89
2018-02-07T15:12:05.934Z,93263.19
2018-02-07T15:14:34.189Z,93267.04
2018-02-07T15:17:02.059Z,93265.92
2018-02-07T15:19:30.095Z,93261.83
2018-02-07T15:21:58.201Z,93264.01
2018-02-07T15:24:26.142Z,93256.81
2018-02-07T15:26:54.261Z,93263.48
2018-02-07T15:29:22.121Z,93265.55
2018-02-07T15:31:50.041Z,93269.25
2018-02-07T15:34:17.908Z,93266.50
2018-02-07T15:36:46.017Z,93269.61
2018-02-07T15:39:13.891Z,93265.09
2018-02-07T15:41:42.034Z,93259.95
2018-02-07T15:44:09.826Z,93261.81
2018-02-07T15:46:38.543Z,93262.09
2018-02-07T15:49:06.587Z,93263.31
2018-02-07T15:51:34.448Z,93265.53
2018-02-07T15:54:02.369Z,93265.78
2018-02-07T15:56:30.284Z,93268.98
2018-02-07T15:58:58.360Z,93275.01
2018-02-07T16:01:26.430Z,93279.06
2018-02-07T16:03:54.506Z,93277.63
2018-02-07T16:06:22.572Z,93281.61
2018-02-07T16:08:51.294Z,93289.47
2018-02-07T16:11:21.071Z,93277.48
2018-02-07T16:13:50.075Z,93280.47
2018-02-07T16:16:18.143Z,93278.84
2018-02-07T16:18:47.017Z,93292.50
2018-02-07T16:21:15.081Z,93292.50
2018-02-07T16:23:44.197Z,93293.17
2018-02-07T16:26:12.273Z,93301.42
2018-02-07T16:28:41.775Z,93302.76
2018-02-07T16:31:10.553Z,93303.67
2018-02-07T16:33:38.718Z,93312.23
2018-02-07T16:36:06.810Z,93310.98
2018-02-07T16:38:35.626Z,93321.33
2018-02-07T16:41:04.299Z,93327.09
2018-02-07T16:43:32.659Z,93328.04
2018-02-07T16:46:01.761Z,93329.03
2018-02-07T16:48:29.795Z,93333.80
2018-02-07T16:50:58.279Z,93337.42
2018-02-07T16:53:26.151Z,93340.19
2018-02-07T16:55:55.252Z,93346.81
2018-02-07T16:58:23.347Z,93356.77
2018-02-07T17:00:52.440Z,93358.58
2018-02-07T17:03:20.466Z,93357.48
2018-02-07T17:05:50.143Z,93361.05
2018-02-07T17:08:19.409Z,93358.14
2018-02-07T17:10:48.625Z,93363.24
2018-02-07T17:13:16.801Z,93364.84
2018-02-07T17:15:44.964Z,93374.68
2018-02-07T17:18:13.398Z,93372.34
2018-02-07T17:20:41.853Z,93378.25
2018-02-07T17:23:09.987Z,93382.75
2018-02-07T17:25:39.162Z,93386.46
2018-02-07T17:28:08.920Z,93389.45
2018-02-07T17:30:39.351Z,93392.45
2018-02-07T17:33:08.525Z,93396.30
2018-02-07T17:35:36.663Z,93396.47
2018-02-07T17:38:05.099Z,93400.97
2018-02-07T17:40:33.793Z,93412.44
2018-02-07T17:43:02.051Z,93413.22
2018-02-07T17:45:30.843Z,93410.75
2018-02-07T17:47:58.731Z,93414.02
2018-02-07T17:50:26.740Z,93416.00
2018-02-07T17:52:54.748Z,93414.06
2018-02-07T17:55:22.626Z,93416.58
2018-02-07T17:57:51.509Z,93406.48
2018-02-07T18:00:19.722Z,93411.64
2018-02-07T18:02:47.950Z,93411.64
2018-02-07T18:05:16.092Z,93416.77
2018-02-07T18:07:45.036Z,93417.64
2018-02-07T18:10:12.882Z,93420.11
2018-02-07T18:12:41.157Z,93429.28
2018-02-07T18:15:09.569Z,93427.59
2018-02-07T18:17:39.470Z,93428.70
2018-02-07T18:20:08.462Z,93436.49
2018-02-07T18:22:37.823Z,93443.35
2018-02-07T18:25:06.569Z,93440.40
2018-02-07T18:27:34.623Z,93445.75
2018-02-07T18:30:02.561Z,93447.82
2018-02-07T18:32:31.154Z,93442.93
2018-02-07T18:34:59.328Z,93436.45
2018-02-07T18:37:27.707Z,93434.91
2018-02-07T18:39:55.723Z,93435.66
2018-02-07T18:42:23.804Z,93440.69
2018-02-07T18:44:52.234Z,93445.41
2018-02-07T18:47:20.323Z,93455.33
2018-02-07T18:49:48.479Z,93454.80
2018-02-07T18:52:16.792Z,93455.02
2018-02-07T18:54:44.846Z,93461.36
2018-02-07T18:57:13.320Z,93474.90
2018-02-07T18:59:41.225Z,93474.95
2018-02-07T19:02:09.453Z,93488.41
2018-02-07T19:04:37.531Z,93491.61
2018-02-07T19:07:05.616Z,93490.69
2018-02-07T19:09:34.484Z,93493.02
2018-02-07T19:12:02.957Z,93493.01
2018-02-07T19:14:31.938Z,93496.14
2018-02-07T19:17:00.332Z,93503.38
2018-02-07T19:19:28.174Z,93501.03
2018-02-07T19:21:56.330Z,93511.13
2018-02-07T19:24:24.655Z,93513.03
2018-02-07T19:26:53.415Z,93513.91
2018-02-07T19:29:22.770Z,93520.86
2018-02-07T19:31:53.625Z,93523.66
2018-02-07T19:34:21.677Z,93522.95
2018-02-07T19:36:49.747Z,93523.91
2018-02-07T19:39:17.822Z,93530.91
2018-02-07T19:41:46.076Z,93529.11
2018-02-07T19:44:15.494Z,93532.48
2018-02-07T19:46:43.576Z,93538.50
2018-02-07T19:49:18.463Z,93540.23
2018-02-07T19:51:46.840Z,93551.53
2018-02-07T19:54:16.579Z,93556.87
2018-02-07T19:56:44.773Z,93558.88
2018-02-07T19:59:14.174Z,93565.09
2018-02-07T20:01:44.972Z,93568.87
2018-02-07T20:04:13.157Z,93574.70
2018-02-07T20:06:41.719Z,93576.86
2018-02-07T20:09:12.512Z,93575.73
2018-02-07T20:11:41.080Z,93580.19
2018-02-07T20:14:09.259Z,93580.47
2018-02-07T20:16:38.314Z,93587.88
2018-02-07T20:19:09.777Z,93593.79
2018-02-07T20:21:38.500Z,93596.73
2018-02-07T20:24:06.398Z,93604.87
2018-02-07T20:26:34.381Z,93604.07
2018-02-07T20:29:03.328Z,93601.17
2018-02-07T20:31:32.017Z,93602.93
2018-02-07T20:33:59.963Z,93612.05
2018-02-07T20:36:28.574Z,93610.95
2018-02-07T20:38:58.040Z,93608.30
2018-02-07T20:41:26.144Z,93608.02
2018-02-07T20:43:54.316Z,93605.52
2018-02-07T20:46:23.414Z,93606.83
2018-02-07T20:48:51.315Z,93607.77
2018-02-07T20:51:20.271Z,93609.15
2018-02-07T20:53:48.193Z,93605.88
2018-02-07T20:56:16.313Z,93609.31
2018-02-07T20:58:44.333Z,93609.66
2018-02-07T21:01:12.348Z,93611.77
2018-02-07T21:03:40.237Z,93609.38
2018-02-07T21:06:08.398Z,93604.52
2018-02-07T21:08:36.225Z,93611.85
2018-02-07T21:11:04.412Z,93606.77
2018-02-07T21:13:32.408Z,93616.45
2018-02-07T21:16:00.487Z,93604.47
2018-02-07T21:18:28.612Z,93606.84
2018-02-07T21:20:56.479Z,93614.43
2018-02-07T21:23:25.593Z,93612.36
2018-02-07T21:25:55.065Z,93614.80
2018-02-07T21:28:23.094Z,93618.80
2018-02-07T21:30:51.050Z,93619.47
2018-02-07T21:33:18.953Z,93617.58
2018-02-07T21:35:47.311Z,93618.80
2018-02-07T21:38:15.482Z,93621.66
2018-02-07T21:40:43.448Z,93621.63
2018-02-07T21:43:12.387Z,93625.38
2018-02-07T21:45:41.095Z,93625.08
2018-02-07T21:48:09.611Z,93622.27
2018-02-07T21:50:38.508Z,93628.66
2018-02-07T21:53:06.453Z,93630.48
2018-02-07T21:55:34.545Z,93629.51
2018-02-07T21:58:02.809Z,93635.45
2018-02-07T22:00:30.897Z,93630.66
2018-02-07T22:03:00.458Z,93632.96
2018-02-07T22:05:28.558Z,93628.83
2018-02-07T22:07:56.334Z,93629.99
2018-02-07T22:10:24.437Z,93625.66
2018-02-07T22:12:53.283Z,93624.45
2018-02-07T22:15:21.462Z,93627.81
2018-02-07T22:17:50.019Z,93628.31
2018-02-07T22:20:18.066Z,93623.29
2018-02-07T22:22:46.919Z,93625.20
2018-02-07T22:25:14.948Z,93626.88
2018-02-07T22:27:43.008Z,93627.27
2018-02-07T22:30:11.706Z,93629.20
2018-02-07T22:32:39.633Z,93629.84
2018-02-07T22:35:07.613Z,93627.89
2018-02-07T22:37:35.431Z,93631.58
2018-02-07T22:40:03.628Z,93621.45
2018-02-07T22:42:31.689Z,93627.13
2018-02-07T22:44:59.755Z,93632.80
2018-02-07T22:47:27.819Z,93634.53
2018-02-07T22:49:55.940Z,93635.25
2018-02-07T22:52:23.935Z,93628.00
2018-02-07T22:54:52.061Z,93640.14
2018-02-07T22:57:20.139Z,93631.98
2018-02-07T22:59:48.081Z,93635.28
2018-02-07T23:02:16.152Z,93634.66
2018-02-07T23:04:43.963Z,93640.09
2018-02-07T23:07:12.807Z,93637.76
2018-02-07T23:09:41.699Z,93638.75
2018-02-07T23:12:09.541Z,93641.02
2018-02-07T23:14:37.364Z,93647.89
2018-02-07T23:17:05.273Z,93647.09
2018-02-07T23:19:34.623Z,93650.30
2018-02-07T23:22:02.644Z,93656.69
2018-02-07T23:24:30.823Z,93647.89
2018-02-07T23:26:58.835Z,93648.16
2018-02-07T23:29:27.706Z,93648.38
2018-02-07T23:31:55.568Z,93644.58
2018-02-07T23:34:23.465Z,93642.95
2018-02-07T23:36:51.535Z,93651.13
2018-02-07T23:39:20.151Z,93652.02
2018-02-07T23:41:49.114Z,93654.05
2018-02-07T23:44:17.034Z,93649.34
2018-02-07T23:46:44.906Z,93653.04
2018-02-07T23:49:12.793Z,93650.96
2018-02-07T23:51:40.685Z,93663.37
2018-02-07T23:54:08.552Z,93662.48
2018-02-07T23:56:36.313Z,93665.54
2018-02-07T23:59:04.337Z,93657.95
